Time;durP1;ratioP1;P1;durP2;ratioP2;P2;SDS_P1;SDS_P2;PMS_P1;PMS_P2;Temp;Humidity;BMP_temperature;BMP_pressure;BME280_temperature;BME280_humidity;BME280_pressure;Samples;Min_cycle;Max_cycle;Signal;HPM_P1;HPM_P2
2022/06/23 00:01:58;;;;;;;;;;;15.70;99.90;;;;;;5105034;28;20007;-72
2022/06/23 00:04:25;;;;;;;;;;;15.70;99.90;;;;;;5046185;28;19925;-73
2022/06/23 00:06:55;;;;;;;;;;;15.70;99.90;;;;;;5027009;28;19925;-72
2022/06/23 00:09:41;;;;;;;;;;;15.70;99.90;;;;;;5081510;28;19931;-73
2022/06/23 00:12:20;;;;;;;;;;;15.60;99.90;;;;;;5051759;28;20476;-73
2022/06/23 00:14:47;;;;;;;;;;;15.70;99.90;;;;;;5105955;28;20002;-72
2022/06/23 00:17:16;;;;;;;;;;;15.60;99.90;;;;;;5110119;28;19923;-72
2022/06/23 00:19:42;;;;;;;;;;;15.60;99.90;;;;;;5107438;28;19963;-73
2022/06/23 00:22:08;;;;;;;;;;;15.60;99.90;;;;;;5109057;28;19977;-73
2022/06/23 00:24:34;;;;;;;;;;;15.50;99.90;;;;;;5105644;28;19928;-73
2022/06/23 00:26:59;;;;;;;;;;;15.50;99.90;;;;;;5108930;28;19930;-72
2022/06/23 00:29:25;;;;;;;;;;;15.50;99.90;;;;;;5104571;28;19931;-73
2022/06/23 00:31:58;;;;;;;;;;;15.50;99.90;;;;;;5107830;28;20369;-72
2022/06/23 00:34:27;;;;;;;;;;;15.50;99.90;;;;;;5101997;28;19977;-72
2022/06/23 00:37:04;;;;;;;;;;;15.50;99.90;;;;;;5101898;28;20007;-73
2022/06/23 00:39:33;;;;;;;;;;;15.50;99.90;;;;;;5048203;28;19927;-72
2022/06/23 00:41:59;;;;;;;;;;;15.40;99.90;;;;;;5098289;28;20288;-72
2022/06/23 00:44:30;;;;;;;;;;;15.40;99.90;;;;;;5103257;28;19931;-73
2022/06/23 00:46:57;;;;;;;;;;;15.40;99.90;;;;;;5048272;28;19925;-73
2022/06/23 00:49:26;;;;;;;;;;;15.40;99.90;;;;;;5104605;28;19931;-72
2022/06/23 00:51:57;;;;;;;;;;;15.40;99.90;;;;;;5044221;28;19939;-73
2022/06/23 00:54:30;;;;;;;;;;;15.30;99.90;;;;;;5102587;28;19923;-72
2022/06/23 00:56:56;;;;;;;;;;;15.30;99.90;;;;;;5090707;28;19931;-73
2022/06/23 00:59:34;;;;;;;;;;;15.30;99.90;;;;;;5101524;28;19923;-73
2022/06/23 01:02:04;;;;;;;;;;;15.30;99.90;;;;;;5095977;28;20439;-72
2022/06/23 01:04:48;;;;;;;;;;;15.30;99.90;;;;;;5032297;28;19926;-72
2022/06/23 01:07:26;;;;;;;;;;;15.30;99.90;;;;;;5108621;27;19931;-73
2022/06/23 01:09:55;;;;;;;;;;;15.30;99.90;;;;;;5108305;28;20457;-73
2022/06/23 01:12:35;;;;;;;;;;;15.20;99.90;;;;;;5052295;28;19926;-73
2022/06/23 01:15:18;;;;;;;;;;;15.20;99.90;;;;;;5010179;28;19926;-73
2022/06/23 01:17:48;;;;;;;;;;;15.30;99.90;;;;;;5012701;28;20018;-73
2022/06/23 01:20:35;;;;;;;;;;;15.30;99.90;;;;;;5012146;28;20437;-72
2022/06/23 01:23:24;;;;;;;;;;;15.30;99.90;;;;;;5010865;28;19925;-73
2022/06/23 01:25:49;;;;;;;;;;;15.30;99.90;;;;;;5011508;28;19926;-73
2022/06/23 01:28:17;;;;;;;;;;;15.20;99.90;;;;;;5006728;28;19931;-73
2022/06/23 01:30:45;;;;;;;;;;;15.20;99.90;;;;;;5020607;28;20012;-73
2022/06/23 01:33:28;;;;;;;;;;;15.20;99.90;;;;;;5109964;28;20018;-72
2022/06/23 01:36:04;;;;;;;;;;;15.20;99.90;;;;;;5107658;28;20595;-73
2022/06/23 01:38:36;;;;;;;;;;;15.20;99.90;;;;;;5109315;28;19978;-73
2022/06/23 01:41:14;;;;;;;;;;;15.20;99.90;;;;;;5034846;28;20022;-72
2022/06/23 01:43:42;;;;;;;;;;;15.20;99.90;;;;;;5098703;28;19931;-72
2022/06/23 01:46:22;;;;;;;;;;;15.10;99.90;;;;;;5006642;28;20589;-72
2022/06/23 01:48:56;;;;;;;;;;;15.20;99.90;;;;;;5026862;28;19925;-72
2022/06/23 01:51:24;;;;;;;;;;;15.20;99.90;;;;;;5079877;28;19924;-73
2022/06/23 01:53:51;;;;;;;;;;;15.10;99.90;;;;;;5041614;28;19926;-73
2022/06/23 01:56:31;;;;;;;;;;;15.10;99.90;;;;;;5006910;28;19926;-73
2022/06/23 01:59:05;;;;;;;;;;;15.10;99.90;;;;;;5029203;28;19925;-73
2022/06/23 02:01:43;;;;;;;;;;;15.00;99.90;;;;;;5089148;28;20358;-73
2022/06/23 02:04:18;;;;;;;;;;;15.00;99.90;;;;;;5028540;28;19932;-72
2022/06/23 02:06:52;;;;;;;;;;;15.00;99.90;;;;;;5007504;28;20324;-73
2022/06/23 02:09:21;;;;;;;;;;;15.00;99.90;;;;;;5102417;28;19924;-72
2022/06/23 02:11:48;;;;;;;;;;;15.00;99.90;;;;;;5047157;28;19978;-73
2022/06/23 02:14:33;;;;;;;;;;;15.10;99.90;;;;;;5007976;28;19925;-72
2022/06/23 02:17:01;;;;;;;;;;;15.00;99.90;;;;;;5009288;28;20299;-73
2022/06/23 02:19:45;;;;;;;;;;;15.00;99.90;;;;;;5009304;28;19925;-73
2022/06/23 02:22:21;;;;;;;;;;;15.00;99.90;;;;;;5012006;28;19992;-73
2022/06/23 02:24:47;;;;;;;;;;;15.00;99.90;;;;;;5010665;28;20405;-73
2022/06/23 02:27:16;;;;;;;;;;;15.00;99.90;;;;;;5015390;28;19925;-73
2022/06/23 02:29:47;;;;;;;;;;;15.00;99.90;;;;;;5007183;28;19925;-72
2022/06/23 02:32:36;;;;;;;;;;;15.00;99.90;;;;;;5007731;28;19926;-73
2022/06/23 02:35:21;;;;;;;;;;;14.90;99.90;;;;;;5040203;28;20339;-73
2022/06/23 02:37:47;;;;;;;;;;;14.90;99.90;;;;;;5088613;28;19924;-72
2022/06/23 02:40:19;;;;;;;;;;;15.00;99.90;;;;;;5007244;28;19925;-73
2022/06/23 02:42:49;;;;;;;;;;;15.00;99.90;;;;;;5009076;28;20052;-73
2022/06/23 02:45:22;;;;;;;;;;;14.90;99.90;;;;;;5008382;28;19934;-73
2022/06/23 02:47:50;;;;;;;;;;;14.90;99.90;;;;;;5005948;28;19956;-73
2022/06/23 02:50:34;;;;;;;;;;;14.90;99.90;;;;;;5029245;28;20385;-74
2022/06/23 02:53:06;;;;;;;;;;;14.90;99.90;;;;;;5104643;28;19923;-74
2022/06/23 02:55:40;;;;;;;;;;;14.90;99.90;;;;;;5006399;28;19926;-74
2022/06/23 02:58:14;;;;;;;;;;;14.90;99.90;;;;;;5019673;28;20727;-74
2022/06/23 03:00:40;;;;;;;;;;;14.90;99.90;;;;;;5065952;28;19936;-74
2022/06/23 03:03:25;;;;;;;;;;;14.90;99.90;;;;;;5009668;28;19937;-73
2022/06/23 03:05:53;;;;;;;;;;;15.00;99.90;;;;;;5053775;28;20299;-74
2022/06/23 03:08:22;;;;;;;;;;;15.00;99.90;;;;;;5027469;28;19932;-73
2022/06/23 03:10:48;;;;;;;;;;;15.00;99.90;;;;;;5016308;28;19932;-73
2022/06/23 03:13:31;;;;;;;;;;;15.10;99.90;;;;;;5007128;28;20303;-74
2022/06/23 03:16:10;;;;;;;;;;;15.00;99.90;;;;;;5008154;28;19926;-73
2022/06/23 03:18:41;;;;;;;;;;;15.00;99.90;;;;;;4994852;28;20016;-75
2022/06/23 03:21:14;;;;;;;;;;;15.00;99.90;;;;;;5007010;28;19925;-74
2022/06/23 03:23:49;;;;;;;;;;;15.00;99.90;;;;;;5019061;28;20026;-73
2022/06/23 03:26:14;;;;;;;;;;;15.10;99.90;;;;;;5073767;28;19929;-74
2022/06/23 03:28:46;;;;;;;;;;;15.00;99.90;;;;;;5052215;28;19972;-74
2022/06/23 03:31:15;;;;;;;;;;;15.00;99.90;;;;;;5047570;28;19936;-74
2022/06/23 03:33:46;;;;;;;;;;;15.00;99.90;;;;;;5010626;28;20394;-73
2022/06/23 03:36:31;;;;;;;;;;;15.00;99.90;;;;;;5010117;28;19929;-73
2022/06/23 03:42:14;;;;;;;;;;;15.00;99.90;;;;;;5113038;28;19927;-74
2022/06/23 03:44:40;;;;;;;;;;;15.10;99.90;;;;;;5043781;28;19928;-73
2022/06/23 03:47:12;;;;;;;;;;;15.10;99.90;;;;;;5112524;28;19930;-74
2022/06/23 03:49:43;;;;;;;;;;;15.10;99.90;;;;;;5109994;28;19930;-74
2022/06/23 03:52:18;;;;;;;;;;;15.10;99.90;;;;;;5110358;27;19966;-74
2022/06/23 03:55:03;;;;;;;;;;;15.10;99.90;;;;;;5111550;28;19977;-73
2022/06/23 03:57:53;;;;;;;;;;;15.20;99.90;;;;;;5102454;28;19953;-73
2022/06/23 04:00:39;;;;;;;;;;;15.20;99.90;;;;;;5078745;28;19926;-74
2022/06/23 04:03:11;;;;;;;;;;;15.30;99.90;;;;;;5089468;28;20438;-73
2022/06/23 04:05:55;;;;;;;;;;;15.40;99.90;;;;;;5069701;28;20377;-74
2022/06/23 04:08:31;;;;;;;;;;;15.30;99.90;;;;;;5106472;28;20290;-73
2022/06/23 04:11:42;;;;;;;;;;;15.40;99.90;;;;;;5108976;28;19959;-74
2022/06/23 04:13:44;;;;;;;;;;;15.40;99.90;;;;;;5109599;28;19924;-74
2022/06/23 04:16:10;;;;;;;;;;;15.50;99.90;;;;;;5092143;28;19936;-73
2022/06/23 04:18:41;;;;;;;;;;;15.50;99.90;;;;;;5059279;28;19949;-74
2022/06/23 04:21:13;;;;;;;;;;;15.60;99.90;;;;;;5108715;28;19969;-74
2022/06/23 04:23:42;;;;;;;;;;;15.60;99.90;;;;;;5111702;28;19977;-74
2022/06/23 04:26:13;;;;;;;;;;;15.60;99.90;;;;;;5053560;28;19994;-73
2022/06/23 04:28:41;;;;;;;;;;;15.70;99.90;;;;;;5110789;28;19924;-74
2022/06/23 04:31:07;;;;;;;;;;;15.70;99.90;;;;;;5012662;27;19930;-74
2022/06/23 04:33:38;;;;;;;;;;;15.80;99.90;;;;;;5073609;28;19931;-74
2022/06/23 04:36:04;;;;;;;;;;;15.90;99.90;;;;;;5042088;28;19923;-73
2022/06/23 04:38:37;;;;;;;;;;;15.90;99.90;;;;;;5112127;28;19970;-74
2022/06/23 04:41:02;;;;;;;;;;;16.00;99.90;;;;;;5033186;28;20289;-74
2022/06/23 04:43:40;;;;;;;;;;;16.00;99.90;;;;;;5109408;28;19924;-73
2022/06/23 04:46:12;;;;;;;;;;;16.10;99.90;;;;;;5010474;28;19959;-74
2022/06/23 04:48:47;;;;;;;;;;;16.10;99.90;;;;;;5010995;28;20712;-74
2022/06/23 04:51:24;;;;;;;;;;;16.20;99.90;;;;;;5009756;28;20028;-73
2022/06/23 04:53:58;;;;;;;;;;;16.20;99.90;;;;;;5012137;28;20055;-74
2022/06/23 04:56:36;;;;;;;;;;;16.30;99.90;;;;;;5010574;28;20296;-74
2022/06/23 04:59:06;;;;;;;;;;;16.30;99.90;;;;;;5008206;28;19937;-73
2022/06/23 05:01:36;;;;;;;;;;;16.40;99.90;;;;;;5030055;28;19932;-74
2022/06/23 05:04:03;;;;;;;;;;;16.50;99.90;;;;;;5077237;28;19949;-73
2022/06/23 05:06:28;;;;;;;;;;;16.50;99.90;;;;;;5008558;28;20432;-74
2022/06/23 05:08:58;;;;;;;;;;;16.60;99.90;;;;;;5008879;28;20020;-73
2022/06/23 05:11:35;;;;;;;;;;;16.60;99.90;;;;;;5011201;28;19925;-74
2022/06/23 05:14:05;;;;;;;;;;;16.70;99.90;;;;;;5009412;28;19925;-74
2022/06/23 05:16:37;;;;;;;;;;;16.70;99.90;;;;;;5011007;28;19930;-73
2022/06/23 05:19:07;;;;;;;;;;;16.80;99.90;;;;;;5109766;28;20305;-74
2022/06/23 05:21:40;;;;;;;;;;;16.80;99.90;;;;;;5108538;27;20011;-74
2022/06/23 05:24:13;;;;;;;;;;;16.90;99.90;;;;;;5068945;28;19925;-73
2022/06/23 05:26:39;;;;;;;;;;;16.90;99.90;;;;;;5096859;28;20385;-74
2022/06/23 05:29:07;;;;;;;;;;;17.00;99.90;;;;;;5110040;28;19944;-74
2022/06/23 05:31:34;;;;;;;;;;;17.00;99.90;;;;;;5051172;28;19930;-74
2022/06/23 05:34:01;;;;;;;;;;;17.00;99.90;;;;;;5096903;28;19924;-73
2022/06/23 05:36:28;;;;;;;;;;;17.10;99.90;;;;;;5110971;28;20489;-73
2022/06/23 05:38:56;;;;;;;;;;;17.10;99.90;;;;;;5109065;28;20669;-73
2022/06/23 05:41:34;;;;;;;;;;;17.10;99.90;;;;;;5109547;28;19979;-74
2022/06/23 05:44:03;;;;;;;;;;;17.20;99.90;;;;;;5108694;28;20458;-73
2022/06/23 05:46:29;;;;;;;;;;;17.30;99.90;;;;;;5107518;28;19997;-73
2022/06/23 05:48:56;;;;;;;;;;;17.30;99.90;;;;;;5108047;28;19927;-73
2022/06/23 05:51:38;;;;;;;;;;;17.30;99.90;;;;;;5103185;28;19994;-72
2022/06/23 05:54:03;;;;;;;;;;;17.40;99.90;;;;;;5087134;28;19937;-71
2022/06/23 05:56:29;;;;;;;;;;;17.40;99.90;;;;;;5007381;28;19933;-71
2022/06/23 05:58:56;;;;;;;;;;;17.40;99.90;;;;;;5030822;28;19934;-72
2022/06/23 06:01:26;;;;;;;;;;;17.50;99.90;;;;;;5025674;28;20400;-72
2022/06/23 06:04:03;;;;;;;;;;;17.50;99.90;;;;;;5060415;28;19930;-72
2022/06/23 06:06:29;;;;;;;;;;;17.60;99.90;;;;;;5060669;28;20559;-73
2022/06/23 06:11:45;;;;;;;;;;;17.60;99.90;;;;;;5020203;28;19926;-73
2022/06/23 06:14:12;;;;;;;;;;;17.60;99.90;;;;;;5043419;28;19976;-73
2022/06/23 06:16:38;;;;;;;;;;;17.60;99.90;;;;;;5042497;28;19963;-73
2022/06/23 06:19:04;;;;;;;;;;;17.60;99.90;;;;;;5090787;28;20421;-74
2022/06/23 06:21:30;;;;;;;;;;;17.70;99.90;;;;;;5061491;28;19932;-73
2022/06/23 06:24:18;;;;;;;;;;;17.70;99.90;;;;;;5075611;28;19924;-73
2022/06/23 06:26:45;;;;;;;;;;;17.70;99.90;;;;;;5052674;28;19924;-73
2022/06/23 06:29:11;;;;;;;;;;;17.80;99.90;;;;;;5093073;28;19924;-73
2022/06/23 06:31:39;;;;;;;;;;;17.80;99.90;;;;;;5055081;28;20569;-73
2022/06/23 06:34:09;;;;;;;;;;;17.90;99.90;;;;;;5080666;28;20393;-73
2022/06/23 06:36:37;;;;;;;;;;;17.90;99.90;;;;;;5023770;28;19926;-73
2022/06/23 06:39:05;;;;;;;;;;;18.00;99.90;;;;;;5101951;28;19935;-74
2022/06/23 06:41:31;;;;;;;;;;;18.00;99.90;;;;;;5085532;28;19924;-73
2022/06/23 06:43:58;;;;;;;10.63;7.78;;;18.00;99.90;;;;;;5095778;28;19977;-73
2022/06/23 06:46:25;;;;;;;11.35;8.88;;;18.00;99.90;;;;;;5089621;28;20435;-73
2022/06/23 06:48:50;;;;;;;13.07;9.23;;;18.10;99.90;;;;;;5088772;28;20481;-73
2022/06/23 06:51:21;;;;;;;10.93;8.88;;;18.10;99.90;;;;;;5052784;28;20510;-73
2022/06/23 06:53:54;;;;;;;;;;;18.20;99.90;;;;;;5019345;28;20041;-73
2022/06/23 06:56:26;;;;;;;;;;;18.20;99.90;;;;;;5058221;28;19919;-73
2022/06/23 06:58:57;;;;;;;;;;;18.30;99.90;;;;;;5073610;28;19926;-73
2022/06/23 07:01:24;;;;;;;;;;;18.40;99.90;;;;;;5032777;28;19929;-73
2022/06/23 07:03:51;;;;;;;;;;;18.40;99.90;;;;;;5026363;28;19922;-73
2022/06/23 07:06:17;;;;;;;;;;;18.50;99.90;;;;;;5058506;28;19925;-74
2022/06/23 07:08:45;;;;;;;;;;;18.50;99.90;;;;;;5072272;28;19920;-72
2022/06/23 07:11:32;;;;;;;;;;;18.50;99.90;;;;;;5102057;28;20442;-73
2022/06/23 07:14:00;;;;;;;;;;;18.60;99.90;;;;;;5031108;28;19919;-73
2022/06/23 07:16:30;;;;;;;;;;;18.70;99.90;;;;;;5081903;28;20342;-73
2022/06/23 07:19:03;;;;;;;;;;;18.70;99.90;;;;;;5041218;28;19921;-73
2022/06/23 07:21:33;;;;;;;;;;;18.80;99.90;;;;;;5056564;28;19922;-73
2022/06/23 07:24:08;;;;;;;;;;;18.90;99.90;;;;;;5009278;28;19922;-73
2022/06/23 07:26:50;;;;;;;;;;;19.00;99.90;;;;;;5007610;28;19926;-73
2022/06/23 07:29:26;;;;;;;;;;;19.10;99.90;;;;;;5105135;28;19919;-73
2022/06/23 07:32:15;;;;;;;;;;;19.10;99.90;;;;;;5040964;28;19929;-73
2022/06/23 07:34:45;;;;;;;;;;;19.20;99.90;;;;;;4983272;28;19921;-73
2022/06/23 07:37:16;;;;;;;11.63;7.40;;;19.30;99.90;;;;;;5068575;28;19928;-73
2022/06/23 07:39:42;;;;;;;;;;;19.40;99.90;;;;;;5024700;28;20044;-73
2022/06/23 07:42:20;;;;;;;;;;;19.50;99.90;;;;;;5058699;28;20321;-73
2022/06/23 07:44:58;;;;;;;;;;;19.60;99.90;;;;;;5013536;28;20008;-73
2022/06/23 07:47:24;;;;;;;;;;;19.60;99.90;;;;;;5011945;28;19968;-73
2022/06/23 07:49:50;;;;;;;;;;;19.80;99.90;;;;;;5076325;28;19972;-73
2022/06/23 07:52:16;;;;;;;;;;;19.80;99.90;;;;;;5078329;28;19963;-73
2022/06/23 07:54:42;;;;;;;;;;;19.90;99.90;;;;;;5009903;28;19922;-73
2022/06/23 07:57:10;;;;;;;8.60;6.63;;;20.00;99.90;;;;;;5009734;28;19966;-73
2022/06/23 07:59:44;;;;;;;10.25;7.05;;;20.00;99.90;;;;;;5020511;28;20107;-73
2022/06/23 08:02:37;;;;;;;14.00;6.93;;;20.00;99.90;;;;;;5008672;28;20095;-72
2022/06/23 08:05:20;;;;;;;10.02;7.05;;;20.20;99.90;;;;;;5005017;28;20061;-73
2022/06/23 08:07:46;;;;;;;9.07;7.40;;;20.20;99.90;;;;;;4995506;28;20421;-73
2022/06/23 08:10:32;;;;;;;10.93;6.70;;;20.40;99.90;;;;;;5009455;28;20444;-72
2022/06/23 08:13:19;;;;;;;11.13;7.50;;;20.50;99.90;;;;;;5009029;28;20507;-73
2022/06/23 08:19:20;;;;;;;9.38;6.85;;;20.70;99.90;;;;;;5009966;28;20396;-72
2022/06/23 08:21:54;;;;;;;12.82;7.70;;;20.80;99.90;;;;;;5095877;28;20061;-72
2022/06/23 08:24:24;;;;;;;10.82;8.55;;;21.00;99.90;;;;;;5097423;28;20047;-72
2022/06/23 08:26:57;;;;;;;13.38;7.80;;;21.10;99.90;;;;;;5027440;28;20405;-73
2022/06/23 08:29:32;;;;;;;11.00;7.20;;;21.20;99.90;;;;;;5004797;28;20050;-73
2022/06/23 08:31:59;;;;;;;9.75;6.97;;;21.30;99.90;;;;;;5034732;28;20050;-74
2022/06/23 08:34:26;;;;;;;12.40;7.40;;;21.40;99.90;;;;;;5023047;28;20416;-74
2022/06/23 08:36:57;;;;;;;12.13;6.95;;;21.50;99.90;;;;;;5083638;28;20044;-73
2022/06/23 08:39:48;;;;;;;10.00;6.47;;;21.60;99.90;;;;;;5057828;28;20049;-73
2022/06/23 08:42:38;;;;;;;8.30;6.18;;;21.70;99.90;;;;;;5034520;28;20141;-73
2022/06/23 08:45:25;;;;;;;10.07;5.53;;;21.80;99.90;;;;;;5048192;28;20044;-73
2022/06/23 08:47:57;;;;;;;10.00;5.60;;;21.90;99.90;;;;;;5070748;28;20130;-73
2022/06/23 08:50:38;;;;;;;12.45;5.70;;;22.00;99.90;;;;;;5068313;28;20038;-73
2022/06/23 08:53:26;;;;;;;11.35;5.50;;;22.20;99.90;;;;;;5037447;28;20134;-71
2022/06/23 08:56:01;;;;;;;7.18;5.22;;;22.30;99.90;;;;;;5006725;28;20161;-72
2022/06/23 08:58:38;;;;;;;12.40;6.13;;;22.30;99.90;;;;;;5006585;27;1759752;-72
2022/06/23 09:01:27;;;;;;;8.68;6.40;;;22.40;99.90;;;;;;5104939;27;20055;-72
2022/06/23 09:04:09;;;;;;;10.18;4.80;;;22.40;99.90;;;;;;5078050;27;20046;-73
2022/06/23 09:06:53;;;;;;;8.52;5.20;;;22.50;99.90;;;;;;5051414;27;20120;-72
2022/06/23 09:09:30;;;;;;;8.80;5.35;;;22.60;99.90;;;;;;5035177;28;20095;-72
2022/06/23 09:12:20;;;;;;;8.88;4.90;;;22.70;99.90;;;;;;5061401;27;20483;-73
2022/06/23 09:15:12;;;;;;;8.75;5.68;;;22.80;99.90;;;;;;5027555;28;20037;-73
2022/06/23 09:17:43;;;;;;;10.35;5.35;;;22.90;99.90;;;;;;5017227;27;20576;-73
2022/06/23 09:20:12;;;;;;;11.65;4.55;;;23.00;99.90;;;;;;5028129;27;20054;-73
2022/06/23 09:22:37;;;;;;;8.10;5.10;;;23.10;99.90;;;;;;5077269;27;20047;-73
2022/06/23 09:25:06;;;;;;;5.80;3.97;;;23.30;99.90;;;;;;5127423;27;20046;-74
2022/06/23 09:28:13;;;;;;;6.90;4.82;;;23.40;99.90;;;;;;5075625;27;20431;-74
2022/06/23 09:30:46;;;;;;;10.20;5.40;;;23.60;99.90;;;;;;5035821;27;20411;-73
2022/06/23 09:33:42;;;;;;;7.35;4.43;;;23.70;99.90;;;;;;5097437;27;20412;-72
2022/06/23 09:36:27;;;;;;;7.50;4.90;;;24.00;99.90;;;;;;5099768;27;20406;-73
2022/06/23 09:38:53;;;;;;;;;;;24.30;99.70;;;;;;5128100;27;20058;-73
2022/06/23 09:41:18;;;;;;;;;;;24.60;99.90;;;;;;5120623;27;19923;-73
2022/06/23 09:43:56;;;;;;;;;;;25.00;99.60;;;;;;5046111;27;19931;-74
2022/06/23 09:46:31;;;;;;;;;;;25.30;98.90;;;;;;5035021;27;19921;-73
2022/06/23 09:48:59;;;;;;;;;;;25.60;96.40;;;;;;5085134;27;20013;-73
2022/06/23 09:51:36;;;;;;;;;;;25.80;97.20;;;;;;5064771;27;19919;-74
2022/06/23 09:54:08;;;;;;;;;;;26.00;96.00;;;;;;5128674;27;19923;-74
2022/06/23 09:56:46;;;;;;;;;;;26.20;93.50;;;;;;5119140;27;19930;-73
2022/06/23 09:59:30;;;;;;;;;;;26.30;93.60;;;;;;5109946;27;20362;-72
2022/06/23 10:01:55;;;;;;;;;;;26.50;93.60;;;;;;5051639;27;19925;-72
2022/06/23 10:04:26;;;;;;;;;;;26.70;92.20;;;;;;5103467;27;19930;-73
2022/06/23 10:07:01;;;;;;;;;;;26.90;92.50;;;;;;5099914;27;19921;-72
2022/06/23 10:09:38;;;;;;;;;;;27.20;92.40;;;;;;5117986;27;20068;-73
2022/06/23 10:12:06;;;;;;;;;;;27.50;92.90;;;;;;5088203;27;20348;-73
2022/06/23 10:14:51;;;;;;;;;;;27.70;90.30;;;;;;5027832;27;19925;-73
2022/06/23 10:17:19;;;;;;;;;;;27.90;89.40;;;;;;5029983;27;19933;-72
2022/06/23 10:20:03;;;;;;;;;;;28.10;90.20;;;;;;5027471;27;19921;-72
2022/06/23 10:22:29;;;;;;;;;;;28.30;90.80;;;;;;5016786;28;20455;-73
2022/06/23 10:25:13;;;;;;;;;;;28.50;85.90;;;;;;5027959;27;19925;-73
2022/06/23 10:27:38;;;;;;;;;;;28.60;86.80;;;;;;5023363;28;19928;-73
2022/06/23 10:30:12;;;;;;;;;;;28.70;85.00;;;;;;5062996;27;19920;-73
2022/06/23 10:32:50;;;;;;;;;;;28.90;84.50;;;;;;5040096;27;19988;-73
2022/06/23 10:35:28;;;;;;;;;;;29.10;80.80;;;;;;5032874;27;19924;-73
2022/06/23 10:38:05;;;;;;;;;;;29.20;82.50;;;;;;5029380;28;20006;-73
2022/06/23 10:40:46;;;;;;;;;;;29.50;79.40;;;;;;5041292;27;19925;-73
2022/06/23 10:43:35;;;;;;;;;;;29.60;78.10;;;;;;5024279;28;19925;-73
2022/06/23 10:46:19;;;;;;;;;;;29.70;77.00;;;;;;5044390;28;20008;-72
2022/06/23 10:48:50;;;;;;;;;;;29.90;77.90;;;;;;5027853;28;19986;-73
2022/06/23 10:51:26;;;;;;;;;;;30.00;73.70;;;;;;5046837;28;19996;-73
2022/06/23 10:54:01;;;;;;;;;;;30.10;74.30;;;;;;5042305;28;19932;-73
2022/06/23 10:56:47;;;;;;;;;;;30.30;73.80;;;;;;5052104;28;19923;-73
2022/06/23 10:59:21;;;;;;;;;;;30.50;73.00;;;;;;5076230;28;20022;-73
2022/06/23 11:02:05;;;;;;;;;;;30.60;72.60;;;;;;5072297;28;19921;-73
2022/06/23 11:04:43;;;;;;;;;;;30.70;69.80;;;;;;5058400;28;20353;-73
2022/06/23 11:07:14;;;;;;;;;;;30.80;68.30;;;;;;5061347;28;20275;-73
2022/06/23 11:09:48;;;;;;;;;;;30.80;66.50;;;;;;5083409;28;20394;-73
2022/06/23 11:12:14;;;;;;;;;;;30.90;66.40;;;;;;5080777;28;19936;-73
2022/06/23 11:14:58;;;;;;;;;;;31.10;64.20;;;;;;5081233;28;20313;-73
2022/06/23 11:17:29;;;;;;;;;;;31.20;65.80;;;;;;5120532;28;19962;-74
2022/06/23 11:20:09;;;;;;;;;;;31.40;64.30;;;;;;5127883;27;19923;-73
2022/06/23 11:22:52;;;;;;;;;;;31.40;60.80;;;;;;5026039;28;19921;-73
2022/06/23 11:25:17;;;;;;;;;;;31.40;60.40;;;;;;5113967;28;19930;-73
2022/06/23 11:27:50;;;;;;;;;;;31.40;59.80;;;;;;5128772;28;19923;-74
2022/06/23 11:30:20;;;;;;;;;;;31.30;60.80;;;;;;5062786;28;19920;-74
2022/06/23 11:32:46;;;;;;;;;;;31.40;59.30;;;;;;5026215;28;19925;-73
2022/06/23 11:35:30;;;;;;;;;;;31.50;61.50;;;;;;5041710;28;20518;-73
2022/06/23 11:37:55;;;;;;;;;;;31.60;61.20;;;;;;5017803;28;19981;-73
2022/06/23 11:40:36;;;;;;;;;;;31.80;61.10;;;;;;5029363;28;19937;-73
2022/06/23 11:43:19;;;;;;;;;;;31.90;61.10;;;;;;5026480;28;19921;-73
2022/06/23 11:45:50;;;;;;;;;;;32.20;62.70;;;;;;5042801;28;20371;-73
2022/06/23 11:48:42;;;;;;;;;;;32.40;59.00;;;;;;5035102;28;19921;-73
2022/06/23 11:51:11;;;;;;;;;;;32.50;59.20;;;;;;5022907;28;19921;-73
2022/06/23 11:53:55;;;;;;;;;;;32.50;58.50;;;;;;5029194;27;19921;-73
2022/06/23 11:56:21;;;;;;;;;;;32.70;57.80;;;;;;5046343;27;19921;-73
2022/06/23 11:58:58;;;;;;;;;;;32.80;59.00;;;;;;5055964;27;19932;-73
2022/06/23 12:01:24;;;;;;;;;;;32.90;57.70;;;;;;5049925;27;19936;-73
2022/06/23 12:03:53;;;;;;;;;;;33.00;56.20;;;;;;5052966;27;19956;-73
2022/06/23 12:06:27;;;;;;;;;;;33.00;56.20;;;;;;5029448;27;19925;-74
2022/06/23 12:08:52;;;;;;;;;;;33.20;54.50;;;;;;5049894;27;19932;-74
2022/06/23 12:11:18;;;;;;;;;;;33.20;57.00;;;;;;5029227;28;19921;-73
2022/06/23 12:13:44;;;;;;;;;;;33.40;56.20;;;;;;5081110;27;19920;-73
2022/06/23 12:16:10;;;;;;;;;;;33.50;56.40;;;;;;5048201;27;19921;-74
2022/06/23 12:18:39;;;;;;;;;;;33.60;56.30;;;;;;5042334;27;19916;-75
2022/06/23 12:21:13;;;;;;;;;;;33.80;55.00;;;;;;5040690;27;19920;-74
2022/06/23 12:23:45;;;;;;;3.55;1.10;;;33.90;52.70;;;;;;5034995;27;19928;-73
2022/06/23 12:26:30;;;;;;;6.25;1.35;;;34.00;55.90;;;;;;5025651;27;20132;-73
2022/06/23 12:29:06;;;;;;;3.72;1.33;;;34.00;52.90;;;;;;5028115;28;20037;-73
2022/06/23 12:31:56;;;;;;;5.78;1.17;;;34.00;53.40;;;;;;5053162;27;20046;-73
2022/06/23 12:34:27;;;;;;;1.80;0.90;;;34.00;52.90;;;;;;5035414;27;20124;-73
2022/06/23 12:37:17;;;;;;;3.28;1.17;;;34.10;53.50;;;;;;5030754;27;20038;-73
2022/06/23 12:40:11;;;;;;;6.15;1.30;;;34.10;49.80;;;;;;5055456;27;20496;-74
2022/06/23 12:42:47;;;;;;;3.53;1.10;;;34.10;53.90;;;;;;5051976;27;20086;-73
2022/06/23 12:45:37;;;;;;;3.92;1.15;;;34.30;53.60;;;;;;5053922;27;20138;-74
2022/06/23 12:48:15;;;;;;;2.42;1.15;;;34.40;52.10;;;;;;5060035;27;20374;-73
2022/06/23 12:51:16;;;;;;;2.90;1.17;;;34.40;51.50;;;;;;5123413;27;20047;-73
2022/06/23 12:54:06;;;;;;;6.25;1.35;;;34.20;49.90;;;;;;5077324;27;20051;-73
2022/06/23 12:56:47;;;;;;;2.50;0.98;;;34.10;50.00;;;;;;5043973;27;20427;-73
2022/06/23 12:59:24;;;;;;;5.35;1.45;;;34.00;52.30;;;;;;5033454;28;20428;-74
2022/06/23 13:02:04;;;;;;;9.52;1.50;;;34.10;52.10;;;;;;5055995;27;20514;-73
2022/06/23 13:05:02;;;;;;;4.05;1.10;;;34.20;52.20;;;;;;5105905;27;20419;-73
2022/06/23 13:07:42;;;;;;;4.20;1.30;;;34.40;51.40;;;;;;5047488;27;20422;-73
2022/06/23 13:10:12;;;;;;;5.65;1.25;;;34.60;49.90;;;;;;5034143;27;20531;-73
2022/06/23 13:13:17;;;;;;;6.63;1.40;;;34.60;51.40;;;;;;5078142;27;20417;-73
2022/06/23 13:15:53;;;;;;;4.70;1.10;;;34.70;51.70;;;;;;5101659;27;20414;-73
2022/06/23 13:18:28;;;;;;;6.25;1.10;;;34.80;51.20;;;;;;5053782;27;20443;-73
2022/06/23 13:21:23;;;;;;;5.07;1.20;;;34.90;49.90;;;;;;5103798;27;20944;-73
2022/06/23 13:23:53;;;;;;;4.60;1.00;;;34.90;50.10;;;;;;5083734;27;20463;-73
2022/06/23 13:26:42;;;;;;;7.78;0.90;;;34.90;50.20;;;;;;5054288;27;20424;-73
2022/06/23 13:29:27;;;;;;;4.35;1.20;;;35.10;49.80;;;;;;5051709;27;20838;-73
2022/06/23 13:32:12;;;;;;;3.07;0.90;;;35.20;48.70;;;;;;5055713;27;20417;-73
2022/06/23 13:35:16;;;;;;;3.28;1.05;;;35.40;49.50;;;;;;5061956;27;20418;-73
2022/06/23 13:37:54;;;;;;;3.90;0.90;;;35.40;48.50;;;;;;5017826;28;20416;-73
2022/06/23 13:40:38;;;;;;;4.28;1.00;;;35.50;47.20;;;;;;5053970;27;20451;-74
2022/06/23 13:43:15;;;;;;;1.90;0.80;;;35.60;45.80;;;;;;5052202;27;20481;-73
2022/06/23 13:45:49;;;;;;;3.03;1.03;;;35.50;47.60;;;;;;5058838;27;20431;-74
2022/06/23 13:48:41;;;;;;;4.85;1.10;;;35.50;47.10;;;;;;5081135;27;20527;-73
2022/06/23 13:51:14;;;;;;;3.15;0.85;;;35.70;47.50;;;;;;5122478;27;20403;-73
2022/06/23 13:54:00;;;;;;;3.53;0.80;;;36.00;47.30;;;;;;5127564;27;20452;-73
2022/06/23 13:56:35;;;;;;;2.42;0.90;;;36.10;46.70;;;;;;5110213;27;20423;-73
2022/06/23 13:59:15;;;;;;;3.30;1.10;;;36.30;45.40;;;;;;5094200;27;20746;-74
2022/06/23 14:02:03;;;;;;;4.47;0.95;;;36.40;46.00;;;;;;5079753;27;20394;-73
2022/06/23 14:04:35;;;;;;;3.53;0.90;;;36.40;45.50;;;;;;5118720;27;20924;-73
2022/06/23 14:07:29;;;;;;;2.33;0.82;;;36.40;46.10;;;;;;5122430;27;20438;-74
2022/06/23 14:10:05;;;;;;;3.33;1.00;;;36.30;44.70;;;;;;5125813;27;20407;-73
2022/06/23 14:13:02;;;;;;;2.65;0.85;;;36.50;46.20;;;;;;5090853;27;20442;-73
2022/06/23 14:15:47;;;;;;;6.90;1.23;;;36.60;46.00;;;;;;5122352;27;20490;-74
2022/06/23 14:18:35;;;;;;;2.45;1.00;;;36.60;46.40;;;;;;5118218;27;20410;-73
2022/06/23 14:21:13;;;;;;;2.80;1.00;;;36.80;45.50;;;;;;5128984;27;20405;-74
2022/06/23 14:23:46;;;;;;;2.63;0.87;;;37.10;46.20;;;;;;5115732;27;20942;-73
2022/06/23 14:26:22;;;;;;;3.22;0.90;;;37.20;43.50;;;;;;5129114;27;20754;-73
2022/06/23 14:29:01;;;;;;;2.85;1.20;;;37.20;44.50;;;;;;5094157;27;20431;-74
2022/06/23 14:31:36;;;;;;;3.28;1.08;;;37.20;46.10;;;;;;5026904;28;20431;-73
2022/06/23 14:34:16;;;;;;;2.63;1.20;;;37.20;44.50;;;;;;5125666;27;20470;-73
2022/06/23 14:37:01;;;;;;;5.07;0.82;;;37.20;44.10;;;;;;5100681;27;20838;-74
2022/06/23 14:39:46;;;;;;;4.55;0.90;;;37.30;44.20;;;;;;5096105;27;20517;-73
2022/06/23 14:42:26;;;;;;;2.72;0.95;;;37.50;43.40;;;;;;5127495;27;20407;-74